sensor_id;sensor_type;location;lat;lon;timestamp;noise_LAeq;noise_LA_min;noise_LA_max;noise_LA01;noise_LA95
74504;Laerm;62988;55.776;37.544;2022-08-21T00:02:21;52.47;47.12;58.76;;
74504;Laerm;62988;55.776;37.544;2022-08-21T00:04:47;52.12;47.14;59.24;;
74504;Laerm;62988;55.776;37.544;2022-08-21T00:07:13;54.96;46.44;71.66;;
74504;Laerm;62988;55.776;37.544;2022-08-21T00:09:39;51.98;46.32;68.25;;
74504;Laerm;62988;55.776;37.544;2022-08-21T00:12:05;51.18;46.36;57.71;;
74504;Laerm;62988;55.776;37.544;2022-08-21T00:14:32;50.57;46.40;56.49;;
74504;Laerm;62988;55.776;37.544;2022-08-21T00:16:58;49.84;44.90;53.99;;
74504;Laerm;62988;55.776;37.544;2022-08-21T00:19:24;52.13;47.31;60.44;;
74504;Laerm;62988;55.776;37.544;2022-08-21T00:21:51;51.15;46.58;60.36;;
74504;Laerm;62988;55.776;37.544;2022-08-21T00:24:19;52.69;46.57;65.15;;
74504;Laerm;62988;55.776;37.544;2022-08-21T00:26:45;51.35;46.52;63.58;;
74504;Laerm;62988;55.776;37.544;2022-08-21T00:29:12;49.30;43.42;54.06;;
74504;Laerm;62988;55.776;37.544;2022-08-21T00:31:39;50.57;45.78;57.18;;
74504;Laerm;62988;55.776;37.544;2022-08-21T00:34:04;51.44;45.82;59.15;;
74504;Laerm;62988;55.776;37.544;2022-08-21T00:36:30;50.89;46.68;59.78;;
74504;Laerm;62988;55.776;37.544;2022-08-21T00:38:56;51.29;46.54;57.81;;
74504;Laerm;62988;55.776;37.544;2022-08-21T00:41:22;51.69;46.65;60.41;;
74504;Laerm;62988;55.776;37.544;2022-08-21T00:43:49;50.52;45.16;56.37;;
74504;Laerm;62988;55.776;37.544;2022-08-21T00:46:15;51.23;46.32;67.75;;
74504;Laerm;62988;55.776;37.544;2022-08-21T00:48:40;49.92;44.43;56.90;;
74504;Laerm;62988;55.776;37.544;2022-08-21T00:51:10;50.26;45.49;55.79;;
74504;Laerm;62988;55.776;37.544;2022-08-21T00:53:39;49.74;45.58;55.42;;
74504;Laerm;62988;55.776;37.544;2022-08-21T00:56:07;49.53;44.35;54.92;;
74504;Laerm;62988;55.776;37.544;2022-08-21T00:58:34;49.63;45.25;55.78;;
74504;Laerm;62988;55.776;37.544;2022-08-21T01:01:03;50.85;45.42;65.47;;
74504;Laerm;62988;55.776;37.544;2022-08-21T01:03:29;52.40;46.61;61.30;;
74504;Laerm;62988;55.776;37.544;2022-08-21T01:05:55;50.86;45.54;65.54;;
74504;Laerm;62988;55.776;37.544;2022-08-21T01:08:21;51.51;45.46;72.81;;
74504;Laerm;62988;55.776;37.544;2022-08-21T01:10:47;49.53;45.04;59.74;;
74504;Laerm;62988;55.776;37.544;2022-08-21T01:13:15;50.33;45.94;59.68;;
74504;Laerm;62988;55.776;37.544;2022-08-21T01:15:45;50.65;46.29;62.67;;
74504;Laerm;62988;55.776;37.544;2022-08-21T01:18:13;50.62;44.44;61.80;;
74504;Laerm;62988;55.776;37.544;2022-08-21T01:20:43;53.02;47.46;62.62;;
74504;Laerm;62988;55.776;37.544;2022-08-21T01:23:08;51.27;44.79;59.50;;
74504;Laerm;62988;55.776;37.544;2022-08-21T01:25:34;51.75;45.56;66.95;;
74504;Laerm;62988;55.776;37.544;2022-08-21T01:28:09;50.45;45.31;55.45;;
74504;Laerm;62988;55.776;37.544;2022-08-21T01:30:38;53.16;46.42;63.19;;
74504;Laerm;62988;55.776;37.544;2022-08-21T01:33:05;50.82;45.85;60.55;;
74504;Laerm;62988;55.776;37.544;2022-08-21T01:35:30;50.78;44.68;63.27;;
74504;Laerm;62988;55.776;37.544;2022-08-21T01:37:56;51.31;44.55;66.53;;
74504;Laerm;62988;55.776;37.544;2022-08-21T01:40:22;49.19;45.02;55.84;;
74504;Laerm;62988;55.776;37.544;2022-08-21T01:42:47;49.77;43.81;55.43;;
74504;Laerm;62988;55.776;37.544;2022-08-21T01:45:14;50.28;45.04;56.05;;
74504;Laerm;62988;55.776;37.544;2022-08-21T01:47:41;51.92;45.02;66.87;;
74504;Laerm;62988;55.776;37.544;2022-08-21T01:50:09;50.75;45.19;56.49;;
74504;Laerm;62988;55.776;37.544;2022-08-21T01:52:35;51.64;46.51;58.91;;
74504;Laerm;62988;55.776;37.544;2022-08-21T01:55:01;49.69;44.86;59.89;;
74504;Laerm;62988;55.776;37.544;2022-08-21T01:57:26;50.87;44.37;72.09;;
74504;Laerm;62988;55.776;37.544;2022-08-21T01:59:52;51.18;46.40;58.77;;
74504;Laerm;62988;55.776;37.544;2022-08-21T02:02:18;50.85;46.24;56.76;;
74504;Laerm;62988;55.776;37.544;2022-08-21T02:04:44;50.17;45.32;55.17;;
74504;Laerm;62988;55.776;37.544;2022-08-21T02:07:09;50.57;44.03;58.70;;
74504;Laerm;62988;55.776;37.544;2022-08-21T02:09:35;51.04;46.01;56.30;;
74504;Laerm;62988;55.776;37.544;2022-08-21T02:12:00;49.91;44.81;55.09;;
74504;Laerm;62988;55.776;37.544;2022-08-21T02:14:26;51.32;46.55;57.57;;
74504;Laerm;62988;55.776;37.544;2022-08-21T02:16:51;53.89;46.39;71.79;;
74504;Laerm;62988;55.776;37.544;2022-08-21T02:19:17;51.30;46.39;55.35;;
74504;Laerm;62988;55.776;37.544;2022-08-21T02:21:43;51.26;46.60;56.49;;
74504;Laerm;62988;55.776;37.544;2022-08-21T02:24:10;52.51;47.12;57.17;;
74504;Laerm;62988;55.776;37.544;2022-08-21T02:26:36;51.67;46.11;58.40;;
74504;Laerm;62988;55.776;37.544;2022-08-21T02:29:03;51.81;45.91;58.21;;
74504;Laerm;62988;55.776;37.544;2022-08-21T02:31:30;51.92;45.32;59.78;;
74504;Laerm;62988;55.776;37.544;2022-08-21T02:33:56;52.46;46.59;59.08;;
74504;Laerm;62988;55.776;37.544;2022-08-21T02:36:21;50.52;45.04;56.43;;
74504;Laerm;62988;55.776;37.544;2022-08-21T02:38:48;50.54;46.12;56.07;;
74504;Laerm;62988;55.776;37.544;2022-08-21T02:41:17;50.68;44.59;61.18;;
74504;Laerm;62988;55.776;37.544;2022-08-21T02:43:43;51.47;46.72;63.81;;
74504;Laerm;62988;55.776;37.544;2022-08-21T02:46:10;53.76;47.52;68.68;;
74504;Laerm;62988;55.776;37.544;2022-08-21T02:48:37;50.74;46.14;56.70;;
74504;Laerm;62988;55.776;37.544;2022-08-21T02:51:09;51.96;46.41;65.06;;
74504;Laerm;62988;55.776;37.544;2022-08-21T02:53:36;52.15;46.66;59.62;;
74504;Laerm;62988;55.776;37.544;2022-08-21T02:56:06;52.20;46.08;59.31;;
74504;Laerm;62988;55.776;37.544;2022-08-21T02:58:34;53.61;47.09;63.96;;
74504;Laerm;62988;55.776;37.544;2022-08-21T03:01:00;50.81;46.63;56.18;;
74504;Laerm;62988;55.776;37.544;2022-08-21T03:03:27;50.21;45.41;56.71;;
74504;Laerm;62988;55.776;37.544;2022-08-21T03:05:54;52.03;46.53;59.01;;
74504;Laerm;62988;55.776;37.544;2022-08-21T03:08:20;51.26;47.20;56.19;;
74504;Laerm;62988;55.776;37.544;2022-08-21T03:10:48;51.94;45.81;60.75;;
74504;Laerm;62988;55.776;37.544;2022-08-21T03:13:15;52.07;47.17;58.45;;
74504;Laerm;62988;55.776;37.544;2022-08-21T03:15:41;52.91;47.04;59.81;;
74504;Laerm;62988;55.776;37.544;2022-08-21T03:18:08;52.37;46.85;60.20;;
74504;Laerm;62988;55.776;37.544;2022-08-21T03:20:36;54.88;48.41;70.01;;
74504;Laerm;62988;55.776;37.544;2022-08-21T03:23:04;52.62;46.48;63.43;;
74504;Laerm;62988;55.776;37.544;2022-08-21T03:25:30;54.81;49.80;59.14;;
74504;Laerm;62988;55.776;37.544;2022-08-21T03:28:00;52.96;49.62;57.33;;
74504;Laerm;62988;55.776;37.544;2022-08-21T03:30:26;55.08;49.36;62.75;;
74504;Laerm;62988;55.776;37.544;2022-08-21T03:32:51;54.73;49.56;62.45;;
74504;Laerm;62988;55.776;37.544;2022-08-21T03:35:18;54.18;47.79;58.51;;
74504;Laerm;62988;55.776;37.544;2022-08-21T03:37:44;53.57;48.59;58.35;;
74504;Laerm;62988;55.776;37.544;2022-08-21T03:40:18;52.76;47.64;57.70;;
74504;Laerm;62988;55.776;37.544;2022-08-21T03:42:44;57.19;50.32;79.84;;
74504;Laerm;62988;55.776;37.544;2022-08-21T03:45:14;54.73;50.19;59.27;;
74504;Laerm;62988;55.776;37.544;2022-08-21T03:47:58;54.97;50.09;60.54;;
74504;Laerm;62988;55.776;37.544;2022-08-21T03:50:30;55.16;50.52;63.81;;
74504;Laerm;62988;55.776;37.544;2022-08-21T03:52:57;56.83;50.66;65.40;;
74504;Laerm;62988;55.776;37.544;2022-08-21T03:55:25;53.48;48.74;59.03;;
74504;Laerm;62988;55.776;37.544;2022-08-21T03:57:51;54.85;49.78;60.75;;
74504;Laerm;62988;55.776;37.544;2022-08-21T04:00:18;54.21;49.36;59.87;;
74504;Laerm;62988;55.776;37.544;2022-08-21T04:02:44;55.55;51.23;60.17;;
74504;Laerm;62988;55.776;37.544;2022-08-21T04:05:11;54.96;51.03;59.02;;
74504;Laerm;62988;55.776;37.544;2022-08-21T04:07:37;55.26;49.83;59.23;;
74504;Laerm;62988;55.776;37.544;2022-08-21T04:10:05;55.22;50.66;69.97;;
74504;Laerm;62988;55.776;37.544;2022-08-21T04:12:31;53.71;47.74;59.54;;
74504;Laerm;62988;55.776;37.544;2022-08-21T04:14:56;53.98;49.52;66.45;;
74504;Laerm;62988;55.776;37.544;2022-08-21T04:17:22;53.97;48.62;61.25;;
74504;Laerm;62988;55.776;37.544;2022-08-21T04:19:47;53.73;47.48;59.77;;
74504;Laerm;62988;55.776;37.544;2022-08-21T04:22:15;55.27;50.41;69.47;;
74504;Laerm;62988;55.776;37.544;2022-08-21T04:24:41;55.31;50.72;61.96;;
74504;Laerm;62988;55.776;37.544;2022-08-21T04:27:06;54.87;49.58;60.09;;
74504;Laerm;62988;55.776;37.544;2022-08-21T04:29:32;56.49;50.59;69.79;;
74504;Laerm;62988;55.776;37.544;2022-08-21T04:31:57;55.78;49.33;62.27;;
74504;Laerm;62988;55.776;37.544;2022-08-21T04:34:23;54.15;49.16;58.19;;
74504;Laerm;62988;55.776;37.544;2022-08-21T04:36:48;55.30;49.98;61.21;;
74504;Laerm;62988;55.776;37.544;2022-08-21T04:39:14;54.46;50.62;59.35;;
74504;Laerm;62988;55.776;37.544;2022-08-21T04:41:39;55.22;50.95;60.52;;
74504;Laerm;62988;55.776;37.544;2022-08-21T04:44:06;54.71;50.17;60.12;;
74504;Laerm;62988;55.776;37.544;2022-08-21T04:46:32;55.35;50.82;61.25;;
74504;Laerm;62988;55.776;37.544;2022-08-21T04:48:58;54.73;49.57;62.34;;
74504;Laerm;62988;55.776;37.544;2022-08-21T04:51:35;56.23;51.17;65.97;;
74504;Laerm;62988;55.776;37.544;2022-08-21T04:54:13;54.75;49.68;64.18;;
74504;Laerm;62988;55.776;37.544;2022-08-21T04:56:46;55.23;50.31;59.50;;
74504;Laerm;62988;55.776;37.544;2022-08-21T04:59:25;55.51;50.03;61.37;;
74504;Laerm;62988;55.776;37.544;2022-08-21T05:01:52;56.28;50.43;60.48;;
74504;Laerm;62988;55.776;37.544;2022-08-21T05:04:22;57.58;52.26;69.54;;
74504;Laerm;62988;55.776;37.544;2022-08-21T05:06:50;57.03;51.78;68.12;;
74504;Laerm;62988;55.776;37.544;2022-08-21T05:09:18;55.01;51.15;59.50;;
74504;Laerm;62988;55.776;37.544;2022-08-21T05:11:44;54.24;49.90;57.72;;
74504;Laerm;62988;55.776;37.544;2022-08-21T05:14:11;55.20;50.23;63.50;;
74504;Laerm;62988;55.776;37.544;2022-08-21T05:16:37;56.15;49.65;68.19;;
74504;Laerm;62988;55.776;37.544;2022-08-21T05:19:06;54.47;50.35;60.65;;
74504;Laerm;62988;55.776;37.544;2022-08-21T05:21:32;56.11;50.79;61.59;;
74504;Laerm;62988;55.776;37.544;2022-08-21T05:23:58;55.00;50.97;59.49;;
74504;Laerm;62988;55.776;37.544;2022-08-21T05:26:23;55.89;50.53;60.67;;
74504;Laerm;62988;55.776;37.544;2022-08-21T05:28:49;55.56;52.15;62.07;;
74504;Laerm;62988;55.776;37.544;2022-08-21T05:31:14;55.64;50.40;66.58;;
74504;Laerm;62988;55.776;37.544;2022-08-21T05:33:40;54.16;50.57;58.81;;
74504;Laerm;62988;55.776;37.544;2022-08-21T05:36:06;55.66;50.54;71.53;;
74504;Laerm;62988;55.776;37.544;2022-08-21T05:38:31;54.97;51.06;60.91;;
74504;Laerm;62988;55.776;37.544;2022-08-21T05:40:57;56.18;50.95;62.56;;
74504;Laerm;62988;55.776;37.544;2022-08-21T05:43:22;54.99;51.01;59.28;;
74504;Laerm;62988;55.776;37.544;2022-08-21T05:45:48;54.56;51.08;58.33;;
74504;Laerm;62988;55.776;37.544;2022-08-21T05:48:22;54.76;50.42;61.79;;
74504;Laerm;62988;55.776;37.544;2022-08-21T05:50:49;54.67;50.69;59.26;;
74504;Laerm;62988;55.776;37.544;2022-08-21T05:55:41;55.49;51.09;66.70;;
74504;Laerm;62988;55.776;37.544;2022-08-21T05:58:07;54.22;49.47;59.42;;
74504;Laerm;62988;55.776;37.544;2022-08-21T06:00:33;56.08;51.42;61.44;;
74504;Laerm;62988;55.776;37.544;2022-08-21T06:02:59;54.73;50.79;60.36;;
74504;Laerm;62988;55.776;37.544;2022-08-21T06:05:25;54.72;50.17;64.50;;
74504;Laerm;62988;55.776;37.544;2022-08-21T06:07:51;54.74;51.00;58.82;;
74504;Laerm;62988;55.776;37.544;2022-08-21T06:10:17;55.05;50.22;60.51;;
74504;Laerm;62988;55.776;37.544;2022-08-21T06:12:43;53.64;49.81;59.38;;
74504;Laerm;62988;55.776;37.544;2022-08-21T06:15:09;53.68;49.77;70.45;;
74504;Laerm;62988;55.776;37.544;2022-08-21T06:17:34;55.69;51.20;65.34;;
74504;Laerm;62988;55.776;37.544;2022-08-21T06:20:00;55.25;51.53;61.58;;
74504;Laerm;62988;55.776;37.544;2022-08-21T06:22:25;55.38;51.23;61.69;;
74504;Laerm;62988;55.776;37.544;2022-08-21T06:24:51;56.91;52.53;64.90;;
74504;Laerm;62988;55.776;37.544;2022-08-21T06:27:16;56.77;52.15;64.18;;
74504;Laerm;62988;55.776;37.544;2022-08-21T06:29:43;56.69;51.18;67.73;;
74504;Laerm;62988;55.776;37.544;2022-08-21T06:32:13;55.11;50.35;67.74;;
74504;Laerm;62988;55.776;37.544;2022-08-21T06:34:40;54.83;50.27;59.43;;
74504;Laerm;62988;55.776;37.544;2022-08-21T06:37:06;56.09;51.37;67.22;;
74504;Laerm;62988;55.776;37.544;2022-08-21T06:39:32;58.08;51.81;77.03;;
74504;Laerm;62988;55.776;37.544;2022-08-21T06:41:59;55.58;48.75;69.03;;
74504;Laerm;62988;55.776;37.544;2022-08-21T06:44:25;54.82;50.47;62.61;;
74504;Laerm;62988;55.776;37.544;2022-08-21T06:46:50;55.08;50.64;62.72;;
74504;Laerm;62988;55.776;37.544;2022-08-21T06:49:16;54.81;50.91;62.81;;
74504;Laerm;62988;55.776;37.544;2022-08-21T06:51:41;54.27;49.95;61.84;;
74504;Laerm;62988;55.776;37.544;2022-08-21T06:54:07;55.57;51.19;66.48;;
74504;Laerm;62988;55.776;37.544;2022-08-21T06:56:34;54.05;49.07;60.27;;
74504;Laerm;62988;55.776;37.544;2022-08-21T06:59:02;54.94;48.42;64.68;;
74504;Laerm;62988;55.776;37.544;2022-08-21T07:01:28;56.63;49.48;79.69;;
74504;Laerm;62988;55.776;37.544;2022-08-21T07:03:54;56.32;52.54;63.20;;
74504;Laerm;62988;55.776;37.544;2022-08-21T07:06:19;56.21;51.94;61.20;;
74504;Laerm;62988;55.776;37.544;2022-08-21T07:08:45;56.11;50.93;61.20;;
74504;Laerm;62988;55.776;37.544;2022-08-21T07:11:15;55.95;49.47;78.56;;
74504;Laerm;62988;55.776;37.544;2022-08-21T07:13:42;56.57;50.69;76.21;;
74504;Laerm;62988;55.776;37.544;2022-08-21T07:16:07;55.28;50.76;65.67;;
74504;Laerm;62988;55.776;37.544;2022-08-21T07:18:34;55.07;50.16;64.84;;
74504;Laerm;62988;55.776;37.544;2022-08-21T07:21:01;54.30;49.73;65.18;;
74504;Laerm;62988;55.776;37.544;2022-08-21T07:23:29;56.27;51.60;75.14;;
74504;Laerm;62988;55.776;37.544;2022-08-21T07:25:55;54.39;50.52;61.96;;
74504;Laerm;62988;55.776;37.544;2022-08-21T07:28:21;54.00;50.35;58.72;;
74504;Laerm;62988;55.776;37.544;2022-08-21T07:30:50;55.55;51.06;65.28;;
74504;Laerm;62988;55.776;37.544;2022-08-21T07:33:16;56.16;51.97;72.55;;
74504;Laerm;62988;55.776;37.544;2022-08-21T07:35:42;55.18;50.94;62.99;;
74504;Laerm;62988;55.776;37.544;2022-08-21T07:38:07;55.37;49.92;66.70;;
74504;Laerm;62988;55.776;37.544;2022-08-21T07:40:33;56.17;50.08;64.33;;
74504;Laerm;62988;55.776;37.544;2022-08-21T07:42:58;57.05;52.25;63.73;;
74504;Laerm;62988;55.776;37.544;2022-08-21T07:45:24;55.97;51.72;62.65;;
74504;Laerm;62988;55.776;37.544;2022-08-21T07:47:50;55.38;50.31;61.86;;
74504;Laerm;62988;55.776;37.544;2022-08-21T07:50:16;53.34;49.38;62.38;;
74504;Laerm;62988;55.776;37.544;2022-08-21T07:52:43;55.23;49.85;60.64;;
74504;Laerm;62988;55.776;37.544;2022-08-21T07:55:11;53.42;49.70;58.08;;
74504;Laerm;62988;55.776;37.544;2022-08-21T07:57:37;55.90;48.76;65.23;;
74504;Laerm;62988;55.776;37.544;2022-08-21T08:00:06;56.88;53.63;63.43;;
74504;Laerm;62988;55.776;37.544;2022-08-21T08:02:32;57.19;51.13;65.81;;
74504;Laerm;62988;55.776;37.544;2022-08-21T08:05:05;56.55;50.81;63.19;;
74504;Laerm;62988;55.776;37.544;2022-08-21T08:07:31;54.66;51.10;62.35;;
74504;Laerm;62988;55.776;37.544;2022-08-21T08:09:57;54.86;50.85;61.65;;
74504;Laerm;62988;55.776;37.544;2022-08-21T08:12:23;56.06;49.65;73.14;;
74504;Laerm;62988;55.776;37.544;2022-08-21T08:14:57;54.11;49.43;61.33;;
74504;Laerm;62988;55.776;37.544;2022-08-21T08:17:23;53.53;49.51;62.64;;
74504;Laerm;62988;55.776;37.544;2022-08-21T08:19:49;55.68;50.33;67.41;;
74504;Laerm;62988;55.776;37.544;2022-08-21T08:22:16;55.16;50.78;63.33;;
74504;Laerm;62988;55.776;37.544;2022-08-21T08:24:42;55.33;51.50;62.23;;
74504;Laerm;62988;55.776;37.544;2022-08-21T08:27:08;55.40;48.61;63.24;;
74504;Laerm;62988;55.776;37.544;2022-08-21T08:29:33;54.92;50.25;65.03;;
74504;Laerm;62988;55.776;37.544;2022-08-21T08:31:59;57.53;52.53;64.61;;
74504;Laerm;62988;55.776;37.544;2022-08-21T08:34:24;55.71;51.02;63.05;;
74504;Laerm;62988;55.776;37.544;2022-08-21T08:36:50;56.04;50.42;66.39;;
74504;Laerm;62988;55.776;37.544;2022-08-21T08:39:15;54.89;49.73;63.63;;
74504;Laerm;62988;55.776;37.544;2022-08-21T08:41:43;56.71;52.90;65.69;;
74504;Laerm;62988;55.776;37.544;2022-08-21T08:44:10;55.39;51.26;62.16;;
74504;Laerm;62988;55.776;37.544;2022-08-21T08:49:06;54.31;48.76;66.50;;
74504;Laerm;62988;55.776;37.544;2022-08-21T08:51:47;53.04;48.02;61.10;;
74504;Laerm;62988;55.776;37.544;2022-08-21T08:54:31;54.47;49.95;60.55;;
74504;Laerm;62988;55.776;37.544;2022-08-21T08:57:03;54.18;49.55;60.03;;
74504;Laerm;62988;55.776;37.544;2022-08-21T08:59:44;56.40;51.55;65.62;;
74504;Laerm;62988;55.776;37.544;2022-08-21T09:02:13;58.01;53.33;63.44;;
74504;Laerm;62988;55.776;37.544;2022-08-21T09:04:39;57.86;53.53;63.97;;
74504;Laerm;62988;55.776;37.544;2022-08-21T09:13:15;58.80;54.28;66.18;;
74504;Laerm;62988;55.776;37.544;2022-08-21T09:23:52;58.02;52.85;77.83;;
74504;Laerm;62988;55.776;37.544;2022-08-21T09:26:23;56.81;52.77;70.12;;
74504;Laerm;62988;55.776;37.544;2022-08-21T09:28:53;56.72;52.67;60.97;;
74504;Laerm;62988;55.776;37.544;2022-08-21T09:31:29;68.51;53.13;82.43;;
74504;Laerm;62988;55.776;37.544;2022-08-21T09:34:00;62.11;53.23;77.50;;
74504;Laerm;62988;55.776;37.544;2022-08-21T09:36:36;65.44;53.35;76.69;;
74504;Laerm;62988;55.776;37.544;2022-08-21T09:39:02;57.70;53.13;64.08;;
74504;Laerm;62988;55.776;37.544;2022-08-21T09:41:32;58.02;53.11;65.62;;
74504;Laerm;62988;55.776;37.544;2022-08-21T09:44:01;59.62;54.16;77.23;;
74504;Laerm;62988;55.776;37.544;2022-08-21T09:46:27;59.14;53.82;66.53;;
74504;Laerm;62988;55.776;37.544;2022-08-21T09:48:59;59.80;56.28;65.54;;
74504;Laerm;62988;55.776;37.544;2022-08-21T09:51:33;58.19;52.93;70.00;;
74504;Laerm;62988;55.776;37.544;2022-08-21T09:56:34;57.26;51.89;62.02;;
74504;Laerm;62988;55.776;37.544;2022-08-21T09:59:38;57.32;52.34;65.41;;
74504;Laerm;62988;55.776;37.544;2022-08-21T10:04:58;56.78;50.75;66.43;;
74504;Laerm;62988;55.776;37.544;2022-08-21T10:07:26;56.42;51.66;62.59;;
74504;Laerm;62988;55.776;37.544;2022-08-21T10:12:39;56.12;52.19;63.14;;
74504;Laerm;62988;55.776;37.544;2022-08-21T10:20:23;57.76;52.15;76.06;;
74504;Laerm;62988;55.776;37.544;2022-08-21T10:31:35;57.56;52.83;62.79;;
74504;Laerm;62988;55.776;37.544;2022-08-21T10:37:22;56.30;51.95;62.23;;
74504;Laerm;62988;55.776;37.544;2022-08-21T10:40:06;56.86;51.50;65.86;;
74504;Laerm;62988;55.776;37.544;2022-08-21T10:45:27;56.37;52.11;64.60;;
74504;Laerm;62988;55.776;37.544;2022-08-21T10:48:05;56.08;50.99;66.49;;
74504;Laerm;62988;55.776;37.544;2022-08-21T10:50:48;59.00;52.38;72.34;;
74504;Laerm;62988;55.776;37.544;2022-08-21T10:56:01;55.03;50.49;61.38;;
74504;Laerm;62988;55.776;37.544;2022-08-21T10:58:37;57.01;50.55;68.96;;
74504;Laerm;62988;55.776;37.544;2022-08-21T11:01:13;57.46;51.25;70.90;;
74504;Laerm;62988;55.776;37.544;2022-08-21T11:03:45;55.43;50.12;66.00;;
74504;Laerm;62988;55.776;37.544;2022-08-21T11:06:19;55.80;50.66;63.17;;
74504;Laerm;62988;55.776;37.544;2022-08-21T11:08:51;56.44;52.52;60.45;;
74504;Laerm;62988;55.776;37.544;2022-08-21T11:11:27;55.68;51.67;60.60;;
74504;Laerm;62988;55.776;37.544;2022-08-21T11:14:01;57.32;51.41;71.14;;
74504;Laerm;62988;55.776;37.544;2022-08-21T11:16:37;56.54;51.43;66.87;;
74504;Laerm;62988;55.776;37.544;2022-08-21T11:19:12;57.44;52.16;65.09;;
74504;Laerm;62988;55.776;37.544;2022-08-21T11:21:43;56.28;50.80;66.67;;
74504;Laerm;62988;55.776;37.544;2022-08-21T11:27:03;57.09;52.67;64.57;;
74504;Laerm;62988;55.776;37.544;2022-08-21T11:29:35;58.08;53.46;65.60;;
74504;Laerm;62988;55.776;37.544;2022-08-21T11:43:43;56.91;51.17;64.87;;
74504;Laerm;62988;55.776;37.544;2022-08-21T11:51:24;57.84;52.16;65.03;;
74504;Laerm;62988;55.776;37.544;2022-08-21T11:56:45;57.31;52.37;72.63;;
74504;Laerm;62988;55.776;37.544;2022-08-21T11:59:37;58.34;53.85;68.59;;
74504;Laerm;62988;55.776;37.544;2022-08-21T12:02:11;56.84;52.08;72.39;;
74504;Laerm;62988;55.776;37.544;2022-08-21T12:04:45;57.12;52.46;62.01;;
74504;Laerm;62988;55.776;37.544;2022-08-21T12:07:27;57.23;50.81;70.57;;
74504;Laerm;62988;55.776;37.544;2022-08-21T12:09:55;56.90;53.16;63.86;;
74504;Laerm;62988;55.776;37.544;2022-08-21T12:12:33;54.09;49.71;58.77;;
74504;Laerm;62988;55.776;37.544;2022-08-21T12:18:00;57.91;53.07;65.91;;
74504;Laerm;62988;55.776;37.544;2022-08-21T12:20:33;55.51;51.37;67.21;;
74504;Laerm;62988;55.776;37.544;2022-08-21T12:25:39;56.47;52.62;65.68;;
74504;Laerm;62988;55.776;37.544;2022-08-21T12:28:10;55.56;51.40;65.03;;
74504;Laerm;62988;55.776;37.544;2022-08-21T12:30:43;55.93;50.80;63.10;;
74504;Laerm;62988;55.776;37.544;2022-08-21T12:33:32;55.62;51.08;63.44;;
74504;Laerm;62988;55.776;37.544;2022-08-21T12:36:10;57.38;51.90;62.70;;
74504;Laerm;62988;55.776;37.544;2022-08-21T12:38:47;56.35;50.79;60.85;;
74504;Laerm;62988;55.776;37.544;2022-08-21T12:41:20;57.71;52.47;63.63;;
74504;Laerm;62988;55.776;37.544;2022-08-21T12:43:51;58.51;54.55;68.81;;
74504;Laerm;62988;55.776;37.544;2022-08-21T12:46:25;57.76;53.44;67.29;;
74504;Laerm;62988;55.776;37.544;2022-08-21T12:48:59;57.78;51.42;68.03;;
74504;Laerm;62988;55.776;37.544;2022-08-21T12:51:37;57.15;53.28;68.07;;
74504;Laerm;62988;55.776;37.544;2022-08-21T12:54:07;56.16;51.86;60.35;;
74504;Laerm;62988;55.776;37.544;2022-08-21T12:56:33;57.26;53.26;65.42;;
74504;Laerm;62988;55.776;37.544;2022-08-21T12:59:05;57.79;52.93;75.21;;
74504;Laerm;62988;55.776;37.544;2022-08-21T13:01:45;58.65;52.63;73.01;;
74504;Laerm;62988;55.776;37.544;2022-08-21T13:04:15;58.35;52.81;70.63;;
74504;Laerm;62988;55.776;37.544;2022-08-21T13:06:49;56.89;51.82;68.05;;
74504;Laerm;62988;55.776;37.544;2022-08-21T13:09:18;58.42;53.35;74.67;;
74504;Laerm;62988;55.776;37.544;2022-08-21T13:11:47;58.06;54.69;65.41;;
74504;Laerm;62988;55.776;37.544;2022-08-21T13:14:35;57.21;53.31;67.17;;
74504;Laerm;62988;55.776;37.544;2022-08-21T13:17:04;59.06;53.54;65.52;;
74504;Laerm;62988;55.776;37.544;2022-08-21T13:19:30;58.19;54.70;62.22;;
74504;Laerm;62988;55.776;37.544;2022-08-21T13:21:57;58.51;53.71;62.47;;
74504;Laerm;62988;55.776;37.544;2022-08-21T13:24:28;59.06;53.82;70.76;;
74504;Laerm;62988;55.776;37.544;2022-08-21T13:26:55;58.31;54.04;63.41;;
74504;Laerm;62988;55.776;37.544;2022-08-21T13:29:23;59.04;51.71;74.22;;
74504;Laerm;62988;55.776;37.544;2022-08-21T13:31:59;59.03;54.56;72.69;;
74504;Laerm;62988;55.776;37.544;2022-08-21T13:34:29;58.97;54.20;71.51;;
74504;Laerm;62988;55.776;37.544;2022-08-21T13:37:02;58.23;52.89;78.16;;
74504;Laerm;62988;55.776;37.544;2022-08-21T13:39:29;59.87;53.83;73.85;;
74504;Laerm;62988;55.776;37.544;2022-08-21T13:41:57;59.47;53.57;68.32;;
74504;Laerm;62988;55.776;37.544;2022-08-21T13:46:58;58.84;53.42;64.23;;
74504;Laerm;62988;55.776;37.544;2022-08-21T13:49:33;57.89;52.64;63.55;;
74504;Laerm;62988;55.776;37.544;2022-08-21T13:51:59;58.55;53.65;65.14;;
74504;Laerm;62988;55.776;37.544;2022-08-21T13:54:40;57.61;53.03;64.13;;
74504;Laerm;62988;55.776;37.544;2022-08-21T13:57:18;57.38;51.57;67.01;;
74504;Laerm;62988;55.776;37.544;2022-08-21T13:59:43;58.09;53.76;65.74;;
74504;Laerm;62988;55.776;37.544;2022-08-21T14:02:14;59.20;54.37;72.69;;
74504;Laerm;62988;55.776;37.544;2022-08-21T14:07:21;58.70;53.53;65.08;;
74504;Laerm;62988;55.776;37.544;2022-08-21T14:09:50;59.55;54.47;68.33;;
74504;Laerm;62988;55.776;37.544;2022-08-21T14:12:23;57.17;51.80;67.98;;
74504;Laerm;62988;55.776;37.544;2022-08-21T14:14:50;57.25;53.03;69.09;;
74504;Laerm;62988;55.776;37.544;2022-08-21T14:17:28;58.29;52.63;67.99;;
74504;Laerm;62988;55.776;37.544;2022-08-21T14:19:54;58.13;53.67;63.23;;
74504;Laerm;62988;55.776;37.544;2022-08-21T14:25:13;58.97;53.17;67.24;;
74504;Laerm;62988;55.776;37.544;2022-08-21T14:28:14;59.30;53.89;67.83;;
74504;Laerm;62988;55.776;37.544;2022-08-21T14:30:42;56.96;51.78;63.72;;
74504;Laerm;62988;55.776;37.544;2022-08-21T14:33:12;58.87;53.10;70.41;;
74504;Laerm;62988;55.776;37.544;2022-08-21T14:35:38;58.67;53.84;67.60;;
74504;Laerm;62988;55.776;37.544;2022-08-21T14:38:15;59.35;55.03;65.58;;
74504;Laerm;62988;55.776;37.544;2022-08-21T14:40:43;58.56;52.39;64.18;;
74504;Laerm;62988;55.776;37.544;2022-08-21T14:43:09;58.13;53.74;68.62;;
74504;Laerm;62988;55.776;37.544;2022-08-21T14:45:34;57.12;53.02;62.37;;
74504;Laerm;62988;55.776;37.544;2022-08-21T14:48:02;57.36;50.98;64.87;;
74504;Laerm;62988;55.776;37.544;2022-08-21T14:50:28;56.98;52.99;63.91;;
74504;Laerm;62988;55.776;37.544;2022-08-21T14:52:54;58.88;54.10;72.82;;
74504;Laerm;62988;55.776;37.544;2022-08-21T14:55:19;59.34;52.90;69.77;;
74504;Laerm;62988;55.776;37.544;2022-08-21T14:57:48;58.84;54.70;64.41;;
74504;Laerm;62988;55.776;37.544;2022-08-21T15:00:16;58.50;53.59;66.24;;
74504;Laerm;62988;55.776;37.544;2022-08-21T15:02:43;57.59;53.57;67.76;;
74504;Laerm;62988;55.776;37.544;2022-08-21T15:05:09;57.65;52.64;64.27;;
74504;Laerm;62988;55.776;37.544;2022-08-21T15:07:35;57.60;52.74;65.82;;